Latest Weather Observations for Sellicks Hill

IDS60801

Issued at 3:02 pm CST Monday 23 September 2019 (issued every 10 minutes, with the page automatically refreshed every 10 minutes)

About weather observations | Map of weather stations | Latest weather observations for SA | Other Formats
Station Details ID: 023886 Name: MOUNT TERRIBLE RADAR Lat: -35.33 Lon: 138.50 Height: 385.7 m
Data from the previous 72 hours. | See also: Recent months at Sellicks Hill
Date/Time
CST
Temp
°C
App
Temp
°C
Dew
Point
°C
Rel
Hum
%
Delta-T
°C
Wind Press
QNH
hPa
Press
MSL
hPa
Rain since
9am
mm
Dir  Spd
km/h
Gust
km/h
Spd
kts
Gust
kts
23/03:00pm - - - - - NW 7 11 4 6 - - -
23/02:30pm - - - - - WNW 9 17 5 9 - - -
23/02:00pm - - - - - W 7 17 4 9 - - -
23/01:30pm - - - - - WNW 9 19 5 10 - - -
23/01:00pm - - - - - WNW 9 17 5 9 - - -
23/12:30pm - - - - - WNW 9 20 5 11 - - -
23/12:00pm - - - - - W 9 20 5 11 - - -
23/11:30am - - - - - WNW 9 15 5 8 - - -
23/11:00am - - - - - WNW 9 20 5 11 - - -
23/10:30am - - - - - WSW 6 15 3 8 - - -
23/10:00am - - - - - W 7 13 4 7 - - -
23/09:30am - - - - - W 6 13 3 7 - - -
23/09:00am - - - - - WSW 7 15 4 8 - - -
23/08:30am - - - - - W 6 9 3 5 - - -
23/08:00am - - - - - WSW 7 15 4 8 - - -
23/07:30am - - - - - W 6 13 3 7 - - -
23/07:00am - - - - - WNW 6 15 3 8 - - -
23/06:30am - - - - - WSW 7 17 4 9 - - -
23/06:00am - - - - - W 7 13 4 7 - - -
23/05:30am - - - - - WSW 6 13 3 7 - - -
23/05:00am - - - - - W 6 15 3 8 - - -
23/04:30am - - - - - W 9 15 5 8 - - -
23/04:00am - - - - - WSW 9 17 5 9 - - -
23/03:30am - - - - - WSW 7 19 4 10 - - -
23/03:00am - - - - - WSW 7 17 4 9 - - -
23/02:30am - - - - - WSW 9 20 5 11 - - -
23/02:00am - - - - - WSW 9 20 5 11 - - -
23/01:30am - - - - - W 7 15 4 8 - - -
23/01:00am - - - - - W 9 17 5 9 - - -
23/12:30am - - - - - WSW 7 15 4 8 - - -
23/12:00am - - - - - W 7 17 4 9 - - -
 
Date/Time
CST
Temp
°C
App
Temp
°C
Dew
Point
°C
Rel
Hum
%
Delta-T
°C
Wind Press
QNH
hPa
Press
MSL
hPa
Rain since
9am
mm
Dir  Spd
km/h
Gust
km/h
Spd
kts
Gust
kts
22/11:30pm - - - - - W 9 22 5 12 - - -
22/11:00pm - - - - - W 7 19 4 10 - - -
22/10:30pm - - - - - W 7 19 4 10 - - -
22/10:00pm - - - - - W 7 19 4 10 - - -
22/09:30pm - - - - - W 7 19 4 10 - - -
22/09:00pm - - - - - WNW 9 17 5 9 - - -
22/08:30pm - - - - - WNW 11 20 6 11 - - -
22/08:00pm - - - - - W 13 26 7 14 - - -
22/07:30pm - - - - - WNW 11 28 6 15 - - -
22/07:00pm - - - - - WNW 11 24 6 13 - - -
22/06:30pm - - - - - NW 15 30 8 16 - - -
22/06:00pm - - - - - NW 13 24 7 13 - - -
22/05:30pm - - - - - NW 13 26 7 14 - - -
22/05:00pm - - - - - NW 13 26 7 14 - - -
22/04:30pm - - - - - NW 15 30 8 16 - - -
22/04:00pm - - - - - NW 11 20 6 11 - - -
22/03:30pm - - - - - NW 13 28 7 15 - - -
22/03:00pm - - - - - NW 15 28 8 15 - - -
22/02:30pm - - - - - NW 15 32 8 17 - - -
22/02:00pm - - - - - NW 11 20 6 11 - - -
22/01:30pm - - - - - NW 17 33 9 18 - - -
22/01:00pm - - - - - NW 17 33 9 18 - - -
22/12:30pm - - - - - NNW 19 28 10 15 - - -
22/12:00pm - - - - - NW 11 24 6 13 - - -
22/11:30am - - - - - NW 15 32 8 17 - - -
22/11:00am - - - - - NW 17 33 9 18 - - -
22/10:30am - - - - - NW 15 26 8 14 - - -
22/10:00am - - - - - NW 13 28 7 15 - - -
22/09:30am - - - - - NW 11 22 6 12 - - -
22/09:00am - - - - - NW 11 22 6 12 - - -
22/08:30am - - - - - NW 13 24 7 13 - - -
22/08:00am - - - - - NW 9 28 5 15 - - -
22/07:30am - - - - - NW 13 24 7 13 - - -
22/07:00am - - - - - NW 13 19 7 10 - - -
22/06:30am - - - - - NW 9 19 5 10 - - -
22/06:00am - - - - - NW 11 20 6 11 - - -
22/05:30am - - - - - WNW 7 13 4 7 - - -
22/05:00am - - - - - WNW 7 15 4 8 - - -
22/04:30am - - - - - NW 9 17 5 9 - - -
22/04:00am - - - - - NW 7 15 4 8 - - -
22/03:30am - - - - - WNW 9 19 5 10 - - -
22/03:00am - - - - - WNW 6 13 3 7 - - -
22/02:30am - - - - - WNW 6 9 3 5 - - -
22/02:00am - - - - - WNW 11 28 6 15 - - -
22/01:30am - - - - - NW 9 17 5 9 - - -
22/01:00am - - - - - WNW 6 17 3 9 - - -
22/12:30am - - - - - WNW 6 11 3 6 - - -
22/12:00am - - - - - WNW 7 15 4 8 - - -
 
Date/Time
CST
Temp
°C
App
Temp
°C
Dew
Point
°C
Rel
Hum
%
Delta-T
°C
Wind Press
QNH
hPa
Press
MSL
hPa
Rain since
9am
mm
Dir  Spd
km/h
Gust
km/h
Spd
kts
Gust
kts
21/11:30pm - - - - - WNW 11 20 6 11 - - -
21/11:00pm - - - - - WNW 9 17 5 9 - - -
21/10:30pm - - - - - W 9 17 5 9 - - -
21/10:00pm - - - - - WNW 6 9 3 5 - - -
21/09:30pm - - - - - W 7 17 4 9 - - -
21/09:00pm - - - - - WNW 11 24 6 13 - - -
21/08:30pm - - - - - WNW 11 24 6 13 - - -
21/08:00pm - - - - - WNW 13 24 7 13 - - -
21/07:30pm - - - - - WNW 11 20 6 11 - - -
21/07:00pm - - - - - WNW 7 20 4 11 - - -
21/06:30pm - - - - - WNW 9 22 5 12 - - -
21/06:00pm - - - - - WNW 11 20 6 11 - - -
21/05:30pm - - - - - WNW 13 28 7 15 - - -
21/05:00pm - - - - - WNW 11 22 6 12 - - -
21/04:30pm - - - - - WNW 7 13 4 7 - - -
21/04:00pm - - - - - WNW 9 22 5 12 - - -
21/03:30pm - - - - - WNW 9 19 5 10 - - -
21/03:00pm - - - - - WNW 9 20 5 11 - - -
21/02:30pm - - - - - W 13 24 7 13 - - -
21/02:00pm - - - - - WNW 13 24 7 13 - - -
21/01:30pm - - - - - W 11 22 6 12 - - -
21/01:00pm - - - - - WNW 13 24 7 13 - - -
21/12:30pm - - - - - WNW 11 22 6 12 - - -
21/12:00pm - - - - - W 11 24 6 13 - - -
21/11:30am - - - - - W 13 30 7 16 - - -
21/11:00am - - - - - W 7 17 4 9 - - -
21/10:30am - - - - - SW 9 22 5 12 - - -
21/10:00am - - - - - WSW 9 24 5 13 - - -
21/09:30am - - - - - SW 7 17 4 9 - - -
21/09:00am - - - - - SW 11 24 6 13 - - -
21/08:30am - - - - - WSW 9 17 5 9 - - -
21/08:00am - - - - - WSW 7 22 4 12 - - -
21/07:30am - - - - - WSW 7 24 4 13 - - -
21/07:00am - - - - - W 7 17 4 9 - - -
21/06:30am - - - - - WNW 9 17 5 9 - - -
21/06:00am - - - - - WNW 9 17 5 9 - - -
21/05:30am - - - - - WNW 11 20 6 11 - - -
21/05:00am - - - - - WNW 9 24 5 13 - - -
21/04:30am - - - - - NW 11 19 6 10 - - -
21/04:00am - - - - - NW 7 17 4 9 - - -
21/03:30am - - - - - NW 11 20 6 11 - - -
21/03:00am - - - - - NW 7 15 4 8 - - -
21/02:30am - - - - - NW 6 9 3 5 - - -
21/02:00am - - - - - W 6 9 3 5 - - -
21/01:30am - - - - - NW 6 9 3 5 - - -
21/01:00am - - - - - NW 4 9 2 5 - - -
21/12:30am - - - - - WSW 6 20 3 11 - - -
21/12:00am - - - - - SW 9 20 5 11 - - -
 
Date/Time
CST
Temp
°C
App
Temp
°C
Dew
Point
°C
Rel
Hum
%
Delta-T
°C
Wind Press
QNH
hPa
Press
MSL
hPa
Rain since
9am
mm
Dir  Spd
km/h
Gust
km/h
Spd
kts
Gust
kts
20/11:30pm - - - - - WSW 9 22 5 12 - - -
20/11:00pm - - - - - WSW 11 32 6 17 - - -
20/10:30pm - - - - - WNW 11 24 6 13 - - -
20/10:00pm - - - - - WNW 13 22 7 12 - - -
20/09:30pm - - - - - NNW 11 20 6 11 - - -
20/09:00pm - - - - - NNW 13 20 7 11 - - -
20/08:30pm - - - - - NW 11 17 6 9 - - -
20/08:00pm - - - - - NNW 11 19 6 10 - - -
20/07:30pm - - - - - NW 9 22 5 12 - - -
20/07:00pm - - - - - NW 11 22 6 12 - - -
20/06:30pm - - - - - NNW 9 13 5 7 - - -
20/06:00pm - - - - - NW 7 15 4 8 - - -
20/05:30pm - - - - - NNW 11 20 6 11 - - -
20/05:00pm - - - - - NW 11 22 6 12 - - -
20/04:30pm - - - - - WNW 9 20 5 11 - - -
20/04:00pm - - - - - NW 9 17 5 9 - - -
20/03:30pm - - - - - WNW 7 15 4 8 - - -

Other formats

Comma delimited format used in spreadsheet applications
http://www.bom.gov.au/fwo/IDS60801/IDS60801.95679.axf

JavaScript Object Notation format (JSON) in row-major order
http://www.bom.gov.au/fwo/IDS60801/IDS60801.95679.json

Data quality

Most of these data are generated automatically and are frequently updated. Quality checks on data are not normally performed. It is possible for incorrect values to appear. Refer to information at About Latest Weather Observations and please check the disclaimer before using these data.